sensor_id;sensor_type;location;lat;lon;timestamp;P1;durP1;ratioP1;P2;durP2;ratioP2
28174;SDS011;59417;44.788;10.334;2023-04-03T00:00:30;2.20;;;2.00;;
28174;SDS011;59417;44.788;10.334;2023-04-03T00:03:00;2.90;;;2.10;;
28174;SDS011;59417;44.788;10.334;2023-04-03T00:05:29;4.15;;;2.25;;
28174;SDS011;59417;44.788;10.334;2023-04-03T00:07:59;3.28;;;2.28;;
28174;SDS011;59417;44.788;10.334;2023-04-03T00:10:28;2.03;;;1.85;;
28174;SDS011;59417;44.788;10.334;2023-04-03T00:12:56;2.30;;;2.00;;
28174;SDS011;59417;44.788;10.334;2023-04-03T00:15:24;3.38;;;2.25;;
28174;SDS011;59417;44.788;10.334;2023-04-03T00:17:52;2.55;;;1.90;;
28174;SDS011;59417;44.788;10.334;2023-04-03T00:20:38;3.95;;;2.40;;
28174;SDS011;59417;44.788;10.334;2023-04-03T00:23:07;2.40;;;1.80;;
28174;SDS011;59417;44.788;10.334;2023-04-03T00:25:35;5.80;;;2.20;;
28174;SDS011;59417;44.788;10.334;2023-04-03T00:28:03;2.45;;;2.00;;
28174;SDS011;59417;44.788;10.334;2023-04-03T00:30:31;3.17;;;2.17;;
28174;SDS011;59417;44.788;10.334;2023-04-03T00:32:59;2.20;;;1.88;;
28174;SDS011;59417;44.788;10.334;2023-04-03T00:35:27;2.90;;;2.05;;
28174;SDS011;59417;44.788;10.334;2023-04-03T00:37:55;3.63;;;2.20;;
28174;SDS011;59417;44.788;10.334;2023-04-03T00:40:24;2.72;;;2.17;;
28174;SDS011;59417;44.788;10.334;2023-04-03T00:42:56;5.30;;;2.45;;
28174;SDS011;59417;44.788;10.334;2023-04-03T00:45:33;3.33;;;2.20;;
28174;SDS011;59417;44.788;10.334;2023-04-03T00:48:02;2.38;;;2.17;;
28174;SDS011;59417;44.788;10.334;2023-04-03T00:50:30;2.38;;;2.00;;
28174;SDS011;59417;44.788;10.334;2023-04-03T00:52:59;4.93;;;2.13;;
28174;SDS011;59417;44.788;10.334;2023-04-03T00:55:28;3.03;;;2.35;;
28174;SDS011;59417;44.788;10.334;2023-04-03T00:58:01;3.78;;;2.25;;
28174;SDS011;59417;44.788;10.334;2023-04-03T01:00:28;2.85;;;2.40;;
28174;SDS011;59417;44.788;10.334;2023-04-03T01:02:57;4.45;;;2.45;;
28174;SDS011;59417;44.788;10.334;2023-04-03T01:05:27;3.38;;;2.58;;
28174;SDS011;59417;44.788;10.334;2023-04-03T01:07:53;2.80;;;2.42;;
28174;SDS011;59417;44.788;10.334;2023-04-03T01:10:25;3.10;;;2.45;;
28174;SDS011;59417;44.788;10.334;2023-04-03T01:12:53;3.35;;;2.50;;
28174;SDS011;59417;44.788;10.334;2023-04-03T01:15:26;3.90;;;2.47;;
28174;SDS011;59417;44.788;10.334;2023-04-03T01:17:58;4.70;;;2.60;;
28174;SDS011;59417;44.788;10.334;2023-04-03T01:23:23;2.90;;;2.30;;
28174;SDS011;59417;44.788;10.334;2023-04-03T01:25:55;3.17;;;2.50;;
28174;SDS011;59417;44.788;10.334;2023-04-03T01:28:26;3.15;;;2.25;;
28174;SDS011;59417;44.788;10.334;2023-04-03T01:33:31;4.00;;;2.72;;
28174;SDS011;59417;44.788;10.334;2023-04-03T01:38:50;4.53;;;2.58;;
28174;SDS011;59417;44.788;10.334;2023-04-03T01:41:17;2.85;;;2.58;;
28174;SDS011;59417;44.788;10.334;2023-04-03T01:43:45;3.88;;;2.25;;
28174;SDS011;59417;44.788;10.334;2023-04-03T01:46:10;3.60;;;2.30;;
28174;SDS011;59417;44.788;10.334;2023-04-03T01:48:37;2.80;;;2.50;;
28174;SDS011;59417;44.788;10.334;2023-04-03T01:51:03;3.70;;;2.97;;
28174;SDS011;59417;44.788;10.334;2023-04-03T01:53:32;4.60;;;3.17;;
28174;SDS011;59417;44.788;10.334;2023-04-03T01:55:58;4.35;;;2.67;;
28174;SDS011;59417;44.788;10.334;2023-04-03T01:58:24;6.13;;;2.53;;
28174;SDS011;59417;44.788;10.334;2023-04-03T02:00:56;2.50;;;2.22;;
28174;SDS011;59417;44.788;10.334;2023-04-03T02:03:25;3.95;;;2.38;;
28174;SDS011;59417;44.788;10.334;2023-04-03T02:05:51;3.88;;;2.55;;
28174;SDS011;59417;44.788;10.334;2023-04-03T02:08:19;3.58;;;3.20;;
28174;SDS011;59417;44.788;10.334;2023-04-03T02:10:49;4.82;;;3.05;;
28174;SDS011;59417;44.788;10.334;2023-04-03T02:13:16;4.15;;;2.45;;
28174;SDS011;59417;44.788;10.334;2023-04-03T02:15:43;2.78;;;2.58;;
28174;SDS011;59417;44.788;10.334;2023-04-03T02:18:10;3.80;;;2.75;;
28174;SDS011;59417;44.788;10.334;2023-04-03T02:20:36;4.43;;;2.67;;
28174;SDS011;59417;44.788;10.334;2023-04-03T02:23:02;2.75;;;2.38;;
28174;SDS011;59417;44.788;10.334;2023-04-03T02:25:29;2.80;;;2.58;;
28174;SDS011;59417;44.788;10.334;2023-04-03T02:27:56;3.92;;;2.88;;
28174;SDS011;59417;44.788;10.334;2023-04-03T02:30:21;4.30;;;3.00;;
28174;SDS011;59417;44.788;10.334;2023-04-03T02:32:48;4.85;;;3.00;;
28174;SDS011;59417;44.788;10.334;2023-04-03T02:35:13;3.92;;;3.10;;
28174;SDS011;59417;44.788;10.334;2023-04-03T02:37:39;4.43;;;3.05;;
28174;SDS011;59417;44.788;10.334;2023-04-03T02:40:06;4.95;;;2.90;;
28174;SDS011;59417;44.788;10.334;2023-04-03T02:42:32;4.57;;;3.20;;
28174;SDS011;59417;44.788;10.334;2023-04-03T02:44:58;5.65;;;2.88;;
28174;SDS011;59417;44.788;10.334;2023-04-03T02:47:26;2.75;;;2.50;;
28174;SDS011;59417;44.788;10.334;2023-04-03T02:49:53;4.68;;;2.90;;
28174;SDS011;59417;44.788;10.334;2023-04-03T02:52:19;3.22;;;2.63;;
28174;SDS011;59417;44.788;10.334;2023-04-03T02:54:46;3.22;;;2.80;;
28174;SDS011;59417;44.788;10.334;2023-04-03T02:57:12;6.32;;;2.80;;
28174;SDS011;59417;44.788;10.334;2023-04-03T02:59:38;4.32;;;2.90;;
28174;SDS011;59417;44.788;10.334;2023-04-03T03:02:07;4.80;;;2.80;;
28174;SDS011;59417;44.788;10.334;2023-04-03T03:04:34;7.32;;;3.38;;
28174;SDS011;59417;44.788;10.334;2023-04-03T03:07:00;4.32;;;2.65;;
28174;SDS011;59417;44.788;10.334;2023-04-03T03:09:27;4.97;;;2.45;;
28174;SDS011;59417;44.788;10.334;2023-04-03T03:11:54;3.55;;;2.50;;
28174;SDS011;59417;44.788;10.334;2023-04-03T03:14:21;3.65;;;2.90;;
28174;SDS011;59417;44.788;10.334;2023-04-03T03:16:47;6.05;;;2.75;;
28174;SDS011;59417;44.788;10.334;2023-04-03T03:19:12;5.70;;;2.90;;
28174;SDS011;59417;44.788;10.334;2023-04-03T03:21:38;3.85;;;2.67;;
28174;SDS011;59417;44.788;10.334;2023-04-03T03:24:04;3.00;;;2.50;;
28174;SDS011;59417;44.788;10.334;2023-04-03T03:26:31;3.17;;;2.88;;
28174;SDS011;59417;44.788;10.334;2023-04-03T03:28:57;3.75;;;2.75;;
28174;SDS011;59417;44.788;10.334;2023-04-03T03:31:23;9.38;;;2.97;;
28174;SDS011;59417;44.788;10.334;2023-04-03T03:33:48;3.38;;;2.80;;
28174;SDS011;59417;44.788;10.334;2023-04-03T03:36:14;5.25;;;2.85;;
28174;SDS011;59417;44.788;10.334;2023-04-03T03:38:40;5.45;;;2.97;;
28174;SDS011;59417;44.788;10.334;2023-04-03T03:41:06;4.07;;;2.70;;
28174;SDS011;59417;44.788;10.334;2023-04-03T03:43:33;4.32;;;2.88;;
28174;SDS011;59417;44.788;10.334;2023-04-03T03:45:58;3.92;;;2.55;;
28174;SDS011;59417;44.788;10.334;2023-04-03T03:48:25;3.78;;;2.65;;
28174;SDS011;59417;44.788;10.334;2023-04-03T03:50:51;4.57;;;3.08;;
28174;SDS011;59417;44.788;10.334;2023-04-03T03:53:20;3.90;;;2.90;;
28174;SDS011;59417;44.788;10.334;2023-04-03T03:55:48;5.20;;;2.90;;
28174;SDS011;59417;44.788;10.334;2023-04-03T03:58:14;3.47;;;2.88;;
28174;SDS011;59417;44.788;10.334;2023-04-03T04:00:41;3.13;;;2.50;;
28174;SDS011;59417;44.788;10.334;2023-04-03T04:03:06;5.38;;;2.60;;
28174;SDS011;59417;44.788;10.334;2023-04-03T04:05:32;5.32;;;2.88;;
28174;SDS011;59417;44.788;10.334;2023-04-03T04:08:00;3.10;;;2.60;;
28174;SDS011;59417;44.788;10.334;2023-04-03T04:10:26;4.18;;;2.58;;
28174;SDS011;59417;44.788;10.334;2023-04-03T04:12:52;4.55;;;3.05;;
28174;SDS011;59417;44.788;10.334;2023-04-03T04:15:21;4.13;;;3.30;;
28174;SDS011;59417;44.788;10.334;2023-04-03T04:17:48;7.18;;;3.20;;
28174;SDS011;59417;44.788;10.334;2023-04-03T04:20:14;3.15;;;2.85;;
28174;SDS011;59417;44.788;10.334;2023-04-03T04:22:40;3.65;;;3.22;;
28174;SDS011;59417;44.788;10.334;2023-04-03T04:25:07;3.78;;;2.95;;
28174;SDS011;59417;44.788;10.334;2023-04-03T04:27:35;6.55;;;3.22;;
28174;SDS011;59417;44.788;10.334;2023-04-03T04:30:02;5.85;;;3.38;;
28174;SDS011;59417;44.788;10.334;2023-04-03T04:32:30;3.03;;;2.72;;
28174;SDS011;59417;44.788;10.334;2023-04-03T04:34:56;7.13;;;3.45;;
28174;SDS011;59417;44.788;10.334;2023-04-03T04:37:22;5.88;;;3.28;;
28174;SDS011;59417;44.788;10.334;2023-04-03T04:39:47;7.50;;;3.55;;
28174;SDS011;59417;44.788;10.334;2023-04-03T04:42:14;7.53;;;3.85;;
28174;SDS011;59417;44.788;10.334;2023-04-03T04:44:40;4.35;;;3.20;;
28174;SDS011;59417;44.788;10.334;2023-04-03T04:47:07;4.15;;;3.20;;
28174;SDS011;59417;44.788;10.334;2023-04-03T04:49:32;4.20;;;3.42;;
28174;SDS011;59417;44.788;10.334;2023-04-03T04:51:59;6.57;;;3.05;;
28174;SDS011;59417;44.788;10.334;2023-04-03T04:54:28;3.85;;;3.00;;
28174;SDS011;59417;44.788;10.334;2023-04-03T04:56:54;4.95;;;3.70;;
28174;SDS011;59417;44.788;10.334;2023-04-03T04:59:20;4.53;;;3.53;;
28174;SDS011;59417;44.788;10.334;2023-04-03T05:01:47;5.53;;;3.65;;
28174;SDS011;59417;44.788;10.334;2023-04-03T05:04:15;11.57;;;4.25;;
28174;SDS011;59417;44.788;10.334;2023-04-03T05:06:42;6.72;;;3.80;;
28174;SDS011;59417;44.788;10.334;2023-04-03T05:09:13;5.10;;;3.25;;
28174;SDS011;59417;44.788;10.334;2023-04-03T05:11:41;4.43;;;3.80;;
28174;SDS011;59417;44.788;10.334;2023-04-03T05:14:07;5.97;;;4.18;;
28174;SDS011;59417;44.788;10.334;2023-04-03T05:16:34;7.65;;;4.30;;
28174;SDS011;59417;44.788;10.334;2023-04-03T05:19:00;5.40;;;4.20;;
28174;SDS011;59417;44.788;10.334;2023-04-03T05:21:26;4.40;;;4.00;;
28174;SDS011;59417;44.788;10.334;2023-04-03T05:23:54;6.13;;;4.40;;
28174;SDS011;59417;44.788;10.334;2023-04-03T05:26:20;7.88;;;4.30;;
28174;SDS011;59417;44.788;10.334;2023-04-03T05:28:48;5.68;;;3.97;;
28174;SDS011;59417;44.788;10.334;2023-04-03T05:31:14;8.55;;;4.10;;
28174;SDS011;59417;44.788;10.334;2023-04-03T05:33:41;5.57;;;4.28;;
28174;SDS011;59417;44.788;10.334;2023-04-03T05:36:10;4.40;;;3.80;;
28174;SDS011;59417;44.788;10.334;2023-04-03T05:38:42;12.15;;;4.38;;
28174;SDS011;59417;44.788;10.334;2023-04-03T05:41:08;9.10;;;4.40;;
28174;SDS011;59417;44.788;10.334;2023-04-03T05:43:34;4.75;;;3.92;;
28174;SDS011;59417;44.788;10.334;2023-04-03T05:46:03;5.07;;;4.03;;
28174;SDS011;59417;44.788;10.334;2023-04-03T05:48:29;7.05;;;3.83;;
28174;SDS011;59417;44.788;10.334;2023-04-03T05:50:55;8.52;;;4.68;;
28174;SDS011;59417;44.788;10.334;2023-04-03T05:53:25;9.75;;;4.38;;
28174;SDS011;59417;44.788;10.334;2023-04-03T05:55:55;7.63;;;4.78;;
28174;SDS011;59417;44.788;10.334;2023-04-03T05:58:22;9.30;;;5.22;;
28174;SDS011;59417;44.788;10.334;2023-04-03T06:00:50;8.20;;;4.32;;
28174;SDS011;59417;44.788;10.334;2023-04-03T06:03:15;9.15;;;5.15;;
28174;SDS011;59417;44.788;10.334;2023-04-03T06:05:42;5.95;;;4.85;;
28174;SDS011;59417;44.788;10.334;2023-04-03T06:08:09;11.65;;;5.10;;
28174;SDS011;59417;44.788;10.334;2023-04-03T06:10:35;6.72;;;4.95;;
28174;SDS011;59417;44.788;10.334;2023-04-03T06:13:01;7.40;;;4.72;;
28174;SDS011;59417;44.788;10.334;2023-04-03T06:15:27;10.55;;;4.75;;
28174;SDS011;59417;44.788;10.334;2023-04-03T06:17:54;9.15;;;5.57;;
28174;SDS011;59417;44.788;10.334;2023-04-03T06:20:20;6.88;;;4.90;;
28174;SDS011;59417;44.788;10.334;2023-04-03T06:22:47;9.70;;;4.97;;
28174;SDS011;59417;44.788;10.334;2023-04-03T06:25:13;9.50;;;6.38;;
28174;SDS011;59417;44.788;10.334;2023-04-03T06:27:39;8.85;;;5.60;;
28174;SDS011;59417;44.788;10.334;2023-04-03T06:30:05;6.95;;;5.57;;
28174;SDS011;59417;44.788;10.334;2023-04-03T06:32:32;8.25;;;5.70;;
28174;SDS011;59417;44.788;10.334;2023-04-03T06:34:57;9.20;;;5.70;;
28174;SDS011;59417;44.788;10.334;2023-04-03T06:37:23;7.78;;;5.82;;
28174;SDS011;59417;44.788;10.334;2023-04-03T06:39:54;7.38;;;5.50;;
28174;SDS011;59417;44.788;10.334;2023-04-03T06:42:20;11.40;;;5.95;;
28174;SDS011;59417;44.788;10.334;2023-04-03T06:44:53;10.45;;;5.78;;
28174;SDS011;59417;44.788;10.334;2023-04-03T06:47:19;8.38;;;7.13;;
28174;SDS011;59417;44.788;10.334;2023-04-03T06:49:45;10.77;;;6.60;;
28174;SDS011;59417;44.788;10.334;2023-04-03T06:52:11;10.70;;;7.22;;
28174;SDS011;59417;44.788;10.334;2023-04-03T06:54:38;9.63;;;7.80;;
28174;SDS011;59417;44.788;10.334;2023-04-03T06:57:05;10.82;;;7.40;;
28174;SDS011;59417;44.788;10.334;2023-04-03T06:59:30;14.57;;;8.55;;
28174;SDS011;59417;44.788;10.334;2023-04-03T07:01:56;10.60;;;8.05;;
28174;SDS011;59417;44.788;10.334;2023-04-03T07:04:23;12.27;;;8.18;;
28174;SDS011;59417;44.788;10.334;2023-04-03T07:06:49;11.93;;;8.75;;
28174;SDS011;59417;44.788;10.334;2023-04-03T07:09:15;11.68;;;8.95;;
28174;SDS011;59417;44.788;10.334;2023-04-03T07:11:41;13.45;;;9.68;;
28174;SDS011;59417;44.788;10.334;2023-04-03T07:14:07;13.00;;;9.25;;
28174;SDS011;59417;44.788;10.334;2023-04-03T07:16:33;12.05;;;10.07;;
28174;SDS011;59417;44.788;10.334;2023-04-03T07:19:00;12.88;;;9.70;;
28174;SDS011;59417;44.788;10.334;2023-04-03T07:21:27;16.10;;;10.57;;
28174;SDS011;59417;44.788;10.334;2023-04-03T07:23:53;15.75;;;11.68;;
28174;SDS011;59417;44.788;10.334;2023-04-03T07:26:20;12.90;;;9.95;;
28174;SDS011;59417;44.788;10.334;2023-04-03T07:28:47;14.73;;;11.13;;
28174;SDS011;59417;44.788;10.334;2023-04-03T07:31:14;19.52;;;11.27;;
28174;SDS011;59417;44.788;10.334;2023-04-03T07:33:42;14.88;;;10.75;;
28174;SDS011;59417;44.788;10.334;2023-04-03T07:36:09;15.27;;;10.10;;
28174;SDS011;59417;44.788;10.334;2023-04-03T07:38:38;19.08;;;10.60;;
28174;SDS011;59417;44.788;10.334;2023-04-03T07:41:04;13.07;;;10.02;;
28174;SDS011;59417;44.788;10.334;2023-04-03T07:43:30;13.30;;;10.43;;
28174;SDS011;59417;44.788;10.334;2023-04-03T07:45:56;12.68;;;10.63;;
28174;SDS011;59417;44.788;10.334;2023-04-03T07:48:22;12.95;;;10.38;;
28174;SDS011;59417;44.788;10.334;2023-04-03T07:50:50;12.38;;;10.15;;
28174;SDS011;59417;44.788;10.334;2023-04-03T07:53:16;13.52;;;10.32;;
28174;SDS011;59417;44.788;10.334;2023-04-03T07:55:42;12.85;;;9.93;;
28174;SDS011;59417;44.788;10.334;2023-04-03T07:58:16;15.30;;;10.82;;
28174;SDS011;59417;44.788;10.334;2023-04-03T08:00:43;13.35;;;9.68;;
28174;SDS011;59417;44.788;10.334;2023-04-03T08:03:10;14.43;;;10.00;;
28174;SDS011;59417;44.788;10.334;2023-04-03T08:05:45;13.07;;;9.43;;
28174;SDS011;59417;44.788;10.334;2023-04-03T08:08:13;12.63;;;9.57;;
28174;SDS011;59417;44.788;10.334;2023-04-03T08:10:41;15.02;;;10.30;;
28174;SDS011;59417;44.788;10.334;2023-04-03T08:13:08;13.20;;;10.20;;
28174;SDS011;59417;44.788;10.334;2023-04-03T08:15:34;13.02;;;10.05;;
28174;SDS011;59417;44.788;10.334;2023-04-03T08:18:01;17.40;;;10.07;;
28174;SDS011;59417;44.788;10.334;2023-04-03T08:20:27;13.55;;;10.23;;
28174;SDS011;59417;44.788;10.334;2023-04-03T08:22:53;13.38;;;10.98;;
28174;SDS011;59417;44.788;10.334;2023-04-03T08:25:19;12.68;;;9.15;;
28174;SDS011;59417;44.788;10.334;2023-04-03T08:27:45;12.68;;;9.90;;
28174;SDS011;59417;44.788;10.334;2023-04-03T08:30:11;12.27;;;9.75;;
28174;SDS011;59417;44.788;10.334;2023-04-03T08:32:37;13.15;;;9.60;;
28174;SDS011;59417;44.788;10.334;2023-04-03T08:35:03;13.65;;;10.68;;
28174;SDS011;59417;44.788;10.334;2023-04-03T08:37:29;15.98;;;11.00;;
28174;SDS011;59417;44.788;10.334;2023-04-03T08:39:55;17.45;;;10.65;;
28174;SDS011;59417;44.788;10.334;2023-04-03T08:44:57;13.70;;;10.63;;
28174;SDS011;59417;44.788;10.334;2023-04-03T08:50:11;14.40;;;10.20;;
28174;SDS011;59417;44.788;10.334;2023-04-03T08:52:56;16.13;;;11.50;;
28174;SDS011;59417;44.788;10.334;2023-04-03T09:00:28;17.25;;;9.52;;
28174;SDS011;59417;44.788;10.334;2023-04-03T09:02:58;15.60;;;10.05;;
28174;SDS011;59417;44.788;10.334;2023-04-03T09:05:47;12.23;;;10.40;;
28174;SDS011;59417;44.788;10.334;2023-04-03T09:10:52;12.68;;;9.88;;
28174;SDS011;59417;44.788;10.334;2023-04-03T09:13:36;13.75;;;10.35;;
28174;SDS011;59417;44.788;10.334;2023-04-03T09:16:19;13.45;;;9.73;;
28174;SDS011;59417;44.788;10.334;2023-04-03T09:18:48;12.23;;;10.10;;
28174;SDS011;59417;44.788;10.334;2023-04-03T09:21:25;13.80;;;10.07;;
28174;SDS011;59417;44.788;10.334;2023-04-03T09:23:58;10.65;;;8.90;;
28174;SDS011;59417;44.788;10.334;2023-04-03T09:26:28;10.65;;;9.55;;
28174;SDS011;59417;44.788;10.334;2023-04-03T09:29:00;12.80;;;9.38;;
28174;SDS011;59417;44.788;10.334;2023-04-03T09:31:35;10.05;;;8.85;;
28174;SDS011;59417;44.788;10.334;2023-04-03T09:34:03;11.32;;;8.98;;
28174;SDS011;59417;44.788;10.334;2023-04-03T09:36:53;11.40;;;9.18;;
28174;SDS011;59417;44.788;10.334;2023-04-03T09:39:21;10.73;;;8.90;;
28174;SDS011;59417;44.788;10.334;2023-04-03T09:44:26;13.95;;;9.70;;
28174;SDS011;59417;44.788;10.334;2023-04-03T09:46:59;11.00;;;7.00;;
28174;SDS011;59417;44.788;10.334;2023-04-03T09:49:42;9.55;;;7.05;;
28174;SDS011;59417;44.788;10.334;2023-04-03T09:52:41;8.38;;;6.32;;
28174;SDS011;59417;44.788;10.334;2023-04-03T09:55:33;9.68;;;5.63;;
28174;SDS011;59417;44.788;10.334;2023-04-03T09:57:54;5.60;;;3.70;;
28174;SDS011;59417;44.788;10.334;2023-04-03T10:00:23;6.18;;;3.97;;
28174;SDS011;59417;44.788;10.334;2023-04-03T10:02:56;8.85;;;4.70;;
28174;SDS011;59417;44.788;10.334;2023-04-03T10:05:28;7.90;;;5.80;;
28174;SDS011;59417;44.788;10.334;2023-04-03T10:08:07;6.45;;;5.70;;
28174;SDS011;59417;44.788;10.334;2023-04-03T10:10:39;7.57;;;5.43;;
28174;SDS011;59417;44.788;10.334;2023-04-03T10:13:13;10.35;;;5.50;;
28174;SDS011;59417;44.788;10.334;2023-04-03T10:15:43;7.03;;;5.03;;
28174;SDS011;59417;44.788;10.334;2023-04-03T10:21:15;7.22;;;4.40;;
28174;SDS011;59417;44.788;10.334;2023-04-03T10:23:48;6.53;;;4.97;;
28174;SDS011;59417;44.788;10.334;2023-04-03T10:26:28;9.75;;;5.00;;
28174;SDS011;59417;44.788;10.334;2023-04-03T10:45:29;4.72;;;4.10;;
28174;SDS011;59417;44.788;10.334;2023-04-03T10:53:07;7.38;;;5.35;;
28174;SDS011;59417;44.788;10.334;2023-04-03T10:55:38;5.53;;;4.30;;
28174;SDS011;59417;44.788;10.334;2023-04-03T11:01:05;8.27;;;4.25;;
28174;SDS011;59417;44.788;10.334;2023-04-03T11:03:36;5.13;;;3.53;;
28174;SDS011;59417;44.788;10.334;2023-04-03T11:06:07;5.47;;;4.35;;
28174;SDS011;59417;44.788;10.334;2023-04-03T11:11:11;5.10;;;4.50;;
28174;SDS011;59417;44.788;10.334;2023-04-03T11:13:41;8.18;;;4.50;;
28174;SDS011;59417;44.788;10.334;2023-04-03T11:16:17;9.48;;;4.00;;
28174;SDS011;59417;44.788;10.334;2023-04-03T11:21:35;6.20;;;3.55;;
28174;SDS011;59417;44.788;10.334;2023-04-03T11:24:11;4.13;;;3.28;;
28174;SDS011;59417;44.788;10.334;2023-04-03T11:26:43;4.15;;;2.72;;
28174;SDS011;59417;44.788;10.334;2023-04-03T11:34:48;6.47;;;2.17;;
28174;SDS011;59417;44.788;10.334;2023-04-03T11:42:42;2.80;;;2.17;;
28174;SDS011;59417;44.788;10.334;2023-04-03T11:53:25;7.22;;;2.05;;
28174;SDS011;59417;44.788;10.334;2023-04-03T11:55:54;1.60;;;1.50;;
28174;SDS011;59417;44.788;10.334;2023-04-03T12:01:01;6.38;;;1.98;;
28174;SDS011;59417;44.788;10.334;2023-04-03T12:16:10;5.28;;;1.33;;
28174;SDS011;59417;44.788;10.334;2023-04-03T12:21:14;1.90;;;1.35;;
28174;SDS011;59417;44.788;10.334;2023-04-03T12:29:32;3.58;;;1.85;;
28174;SDS011;59417;44.788;10.334;2023-04-03T12:40:57;4.25;;;1.40;;
28174;SDS011;59417;44.788;10.334;2023-04-03T12:46:23;7.13;;;1.60;;
28174;SDS011;59417;44.788;10.334;2023-04-03T12:48:55;3.92;;;1.75;;
28174;SDS011;59417;44.788;10.334;2023-04-03T12:51:39;2.97;;;1.45;;
28174;SDS011;59417;44.788;10.334;2023-04-03T12:54:48;4.70;;;1.80;;
28174;SDS011;59417;44.788;10.334;2023-04-03T12:59:36;4.47;;;2.30;;
28174;SDS011;59417;44.788;10.334;2023-04-03T13:02:09;4.40;;;2.13;;
28174;SDS011;59417;44.788;10.334;2023-04-03T13:04:42;5.65;;;1.95;;
28174;SDS011;59417;44.788;10.334;2023-04-03T13:07:23;7.22;;;1.98;;
28174;SDS011;59417;44.788;10.334;2023-04-03T13:09:58;3.80;;;1.90;;
28174;SDS011;59417;44.788;10.334;2023-04-03T13:12:28;6.72;;;2.17;;
28174;SDS011;59417;44.788;10.334;2023-04-03T13:15:21;3.42;;;2.28;;
28174;SDS011;59417;44.788;10.334;2023-04-03T13:17:50;2.58;;;2.03;;
28174;SDS011;59417;44.788;10.334;2023-04-03T13:20:19;18.60;;;11.43;;
28174;SDS011;59417;44.788;10.334;2023-04-03T13:22:59;18.73;;;10.98;;
28174;SDS011;59417;44.788;10.334;2023-04-03T13:25:34;14.88;;;6.53;;
28174;SDS011;59417;44.788;10.334;2023-04-03T13:28:03;14.50;;;6.28;;
28174;SDS011;59417;44.788;10.334;2023-04-03T13:30:33;6.88;;;3.67;;
28174;SDS011;59417;44.788;10.334;2023-04-03T13:33:05;6.50;;;2.88;;
28174;SDS011;59417;44.788;10.334;2023-04-03T13:35:45;8.32;;;4.05;;
28174;SDS011;59417;44.788;10.334;2023-04-03T13:41:02;7.13;;;4.00;;
28174;SDS011;59417;44.788;10.334;2023-04-03T13:43:45;7.70;;;4.53;;
28174;SDS011;59417;44.788;10.334;2023-04-03T13:51:07;5.03;;;3.60;;
28174;SDS011;59417;44.788;10.334;2023-04-03T13:53:46;5.65;;;3.22;;
28174;SDS011;59417;44.788;10.334;2023-04-03T13:56:19;6.15;;;3.28;;
28174;SDS011;59417;44.788;10.334;2023-04-03T13:59:01;5.05;;;2.95;;
28174;SDS011;59417;44.788;10.334;2023-04-03T14:01:32;5.07;;;3.28;;
28174;SDS011;59417;44.788;10.334;2023-04-03T14:06:53;5.28;;;2.97;;
28174;SDS011;59417;44.788;10.334;2023-04-03T14:09:20;5.68;;;2.58;;
28174;SDS011;59417;44.788;10.334;2023-04-03T14:11:48;4.47;;;2.60;;
28174;SDS011;59417;44.788;10.334;2023-04-03T14:14:27;4.93;;;2.60;;
28174;SDS011;59417;44.788;10.334;2023-04-03T14:16:57;4.60;;;2.47;;
28174;SDS011;59417;44.788;10.334;2023-04-03T14:19:27;4.87;;;2.67;;
28174;SDS011;59417;44.788;10.334;2023-04-03T14:21:55;3.95;;;2.45;;
28174;SDS011;59417;44.788;10.334;2023-04-03T14:24:21;4.70;;;2.50;;
28174;SDS011;59417;44.788;10.334;2023-04-03T14:26:49;3.45;;;2.40;;
28174;SDS011;59417;44.788;10.334;2023-04-03T14:29:17;2.80;;;2.50;;
28174;SDS011;59417;44.788;10.334;2023-04-03T14:31:44;5.32;;;2.83;;
28174;SDS011;59417;44.788;10.334;2023-04-03T14:34:12;6.35;;;2.50;;
28174;SDS011;59417;44.788;10.334;2023-04-03T14:36:39;4.55;;;2.47;;
28174;SDS011;59417;44.788;10.334;2023-04-03T14:39:07;2.03;;;1.73;;
28174;SDS011;59417;44.788;10.334;2023-04-03T14:41:35;7.37;;;2.33;;
28174;SDS011;59417;44.788;10.334;2023-04-03T14:44:01;5.13;;;2.25;;
28174;SDS011;59417;44.788;10.334;2023-04-03T14:48:57;7.80;;;2.58;;
28174;SDS011;59417;44.788;10.334;2023-04-03T14:51:24;5.18;;;2.58;;
28174;SDS011;59417;44.788;10.334;2023-04-03T14:53:50;2.40;;;2.20;;
28174;SDS011;59417;44.788;10.334;2023-04-03T14:58:43;3.30;;;2.13;;
28174;SDS011;59417;44.788;10.334;2023-04-03T15:01:13;5.05;;;2.30;;
28174;SDS011;59417;44.788;10.334;2023-04-03T15:03:39;6.28;;;2.28;;
28174;SDS011;59417;44.788;10.334;2023-04-03T15:06:05;2.90;;;1.58;;
28174;SDS011;59417;44.788;10.334;2023-04-03T15:08:30;3.75;;;1.52;;
28174;SDS011;59417;44.788;10.334;2023-04-03T15:10:56;5.13;;;2.10;;
28174;SDS011;59417;44.788;10.334;2023-04-03T15:13:23;6.50;;;2.28;;
28174;SDS011;59417;44.788;10.334;2023-04-03T15:15:50;3.97;;;1.80;;
28174;SDS011;59417;44.788;10.334;2023-04-03T15:18:21;3.13;;;1.58;;
28174;SDS011;59417;44.788;10.334;2023-04-03T15:20:49;1.63;;;1.42;;
28174;SDS011;59417;44.788;10.334;2023-04-03T15:23:15;3.30;;;1.27;;
28174;SDS011;59417;44.788;10.334;2023-04-03T15:25:45;2.83;;;1.27;;
28174;SDS011;59417;44.788;10.334;2023-04-03T15:28:23;2.28;;;1.38;;
28174;SDS011;59417;44.788;10.334;2023-04-03T15:33:18;4.72;;;1.55;;
28174;SDS011;59417;44.788;10.334;2023-04-03T15:35:44;1.77;;;1.25;;
28174;SDS011;59417;44.788;10.334;2023-04-03T15:38:10;2.60;;;1.13;;
28174;SDS011;59417;44.788;10.334;2023-04-03T15:40:35;3.40;;;1.45;;
28174;SDS011;59417;44.788;10.334;2023-04-03T15:43:02;1.30;;;1.20;;
28174;SDS011;59417;44.788;10.334;2023-04-03T15:45:28;4.22;;;1.42;;
28174;SDS011;59417;44.788;10.334;2023-04-03T15:47:55;2.40;;;1.30;;
28174;SDS011;59417;44.788;10.334;2023-04-03T15:50:21;1.75;;;1.15;;
28174;SDS011;59417;44.788;10.334;2023-04-03T15:52:50;1.65;;;0.88;;
28174;SDS011;59417;44.788;10.334;2023-04-03T15:55:23;2.58;;;1.10;;
28174;SDS011;59417;44.788;10.334;2023-04-03T15:57:50;1.98;;;1.35;;
28174;SDS011;59417;44.788;10.334;2023-04-03T16:00:16;1.85;;;1.05;;
28174;SDS011;59417;44.788;10.334;2023-04-03T16:02:46;2.75;;;1.50;;
28174;SDS011;59417;44.788;10.334;2023-04-03T16:05:12;4.47;;;1.30;;
28174;SDS011;59417;44.788;10.334;2023-04-03T16:07:45;3.67;;;1.63;;
28174;SDS011;59417;44.788;10.334;2023-04-03T16:10:12;2.90;;;1.40;;
28174;SDS011;59417;44.788;10.334;2023-04-03T16:12:39;4.13;;;1.40;;
28174;SDS011;59417;44.788;10.334;2023-04-03T16:15:05;2.67;;;0.98;;
28174;SDS011;59417;44.788;10.334;2023-04-03T16:17:32;1.73;;;1.33;;
28174;SDS011;59417;44.788;10.334;2023-04-03T16:19:59;1.13;;;1.02;;
28174;SDS011;59417;44.788;10.334;2023-04-03T16:22:26;2.88;;;1.30;;
28174;SDS011;59417;44.788;10.334;2023-04-03T16:24:53;1.70;;;1.15;;
28174;SDS011;59417;44.788;10.334;2023-04-03T16:27:19;1.60;;;1.08;;
28174;SDS011;59417;44.788;10.334;2023-04-03T16:29:45;5.07;;;1.17;;
28174;SDS011;59417;44.788;10.334;2023-04-03T16:32:11;3.88;;;1.40;;
28174;SDS011;59417;44.788;10.334;2023-04-03T16:34:37;3.38;;;1.38;;
28174;SDS011;59417;44.788;10.334;2023-04-03T16:37:05;4.53;;;1.60;;
28174;SDS011;59417;44.788;10.334;2023-04-03T16:39:34;4.07;;;1.70;;
28174;SDS011;59417;44.788;10.334;2023-04-03T16:42:00;5.28;;;1.83;;
28174;SDS011;59417;44.788;10.334;2023-04-03T16:44:26;3.70;;;1.80;;
28174;SDS011;59417;44.788;10.334;2023-04-03T16:46:52;6.82;;;1.55;;
28174;SDS011;59417;44.788;10.334;2023-04-03T16:49:18;4.63;;;1.55;;
28174;SDS011;59417;44.788;10.334;2023-04-03T16:51:43;4.53;;;1.45;;